Time;durP1;ratioP1;P1;durP2;ratioP2;P2;SDS_P1;SDS_P2;PMS_P1;PMS_P2;Temp;Humidity;BMP_temperature;BMP_pressure;BME280_temperature;BME280_humidity;BME280_pressure;Samples;Min_cycle;Max_cycle;Signal;HPM_P1;HPM_P2
2024/03/13 00:00:10;;;;;;;57.35;14.13;;;;;;;15.00;82.20;101311.69;4952553;28;20099;-47
2024/03/13 00:02:38;;;;;;;59.25;14.38;;;;;;;14.80;82.92;101317.75;4951880;28;20097;-45
2024/03/13 00:05:05;;;;;;;54.08;14.23;;;;;;;15.03;81.60;101316.06;4951812;28;20449;-44
2024/03/13 00:07:33;;;;;;;55.85;14.45;;;;;;;14.86;82.48;101318.66;4952683;28;20039;-46
2024/03/13 00:10:01;;;;;;;57.58;14.50;;;;;;;14.95;82.91;101325.66;4951622;28;20038;-46
2024/03/13 00:12:28;;;;;;;59.95;15.05;;;;;;;14.92;82.24;101323.06;4969911;23;20017;-41
2024/03/13 00:14:55;;;;;;;56.22;14.98;;;;;;;14.47;84.56;101322.00;4991162;28;20030;-43
2024/03/13 00:17:20;;;;;;;54.28;14.75;;;;;;;14.71;84.38;101323.84;4983735;28;20445;-40
2024/03/13 00:19:50;;;;;;;65.30;14.85;;;;;;;14.59;84.40;101323.81;4993708;28;20042;-42
2024/03/13 00:22:20;;;;;;;59.65;14.77;;;;;;;14.40;85.32;101322.84;4993055;28;20410;-43
2024/03/13 00:24:46;;;;;;;63.80;14.50;;;;;;;14.81;84.03;101328.28;4974746;28;20042;-40
2024/03/13 00:27:12;;;;;;;56.60;14.50;;;;;;;14.93;83.22;101320.44;4974524;28;20504;-42
2024/03/13 00:29:38;;;;;;;57.47;15.35;;;;;;;15.01;82.91;101323.06;4974004;28;20043;-41
2024/03/13 00:32:07;;;;;;;52.65;13.95;;;;;;;14.80;83.51;101329.16;4974043;28;20045;-42
2024/03/13 00:34:32;;;;;;;61.42;15.07;;;;;;;14.97;82.89;101329.19;4973450;28;20113;-39
2024/03/13 00:36:58;;;;;;;53.03;14.93;;;;;;;15.15;82.28;101325.72;4974144;28;20050;-41
2024/03/13 00:39:23;;;;;;;49.85;14.50;;;;;;;15.14;81.65;101329.22;4974417;28;20146;-41
2024/03/13 00:41:48;;;;;;;62.10;14.32;;;;;;;14.74;83.34;101328.25;4973930;28;20502;-41
2024/03/13 00:44:14;;;;;;;50.88;14.32;;;;;;;14.63;83.99;101325.59;4974171;28;20125;-41
2024/03/13 00:46:40;;;;;;;51.53;14.32;;;;;;;14.94;83.09;101329.19;4974090;28;20054;-43
2024/03/13 00:49:07;;;;;;;55.50;14.20;;;;;;;15.13;82.33;101327.47;4974818;28;20070;-42
2024/03/13 00:51:33;;;;;;;50.08;14.85;;;;;;;15.21;82.03;101328.34;4974580;28;20031;-40
2024/03/13 00:54:04;;;;;;;47.03;13.48;;;;;;;15.18;81.66;101328.38;4972508;28;20378;-41
2024/03/13 00:56:29;;;;;;;51.08;15.38;;;;;;;15.00;82.26;101330.06;4974501;28;20031;-42
2024/03/13 00:58:55;;;;;;;48.22;14.50;;;;;;;14.95;82.96;101331.81;4973879;28;20035;-40
2024/03/13 01:01:21;;;;;;;49.92;15.50;;;;;;;14.60;84.55;101338.69;4974498;28;20030;-41
2024/03/13 01:03:46;;;;;;;48.30;15.30;;;;;;;14.70;83.62;101339.63;4973805;28;20062;-41
2024/03/13 01:06:11;;;;;;;50.05;15.57;;;;;;;14.67;84.92;101345.72;4974471;28;20114;-40
2024/03/13 01:08:38;;;;;;;68.95;16.60;;;;;;;14.79;83.66;101337.00;4975789;28;20796;-42
2024/03/13 01:11:04;;;;;;;60.00;16.13;;;;;;;14.88;82.85;101337.06;4982866;28;20038;-43
2024/03/13 01:13:29;;;;;;;48.40;14.93;;;;;;;14.91;83.12;101331.78;4981001;28;20037;-42
2024/03/13 01:15:55;;;;;;;50.25;14.93;;;;;;;14.29;85.50;101336.72;4979939;28;20125;-43
2024/03/13 01:18:20;;;;;;;49.83;15.25;;;;;;;14.96;83.51;101332.69;4976334;28;20023;-40
2024/03/13 01:20:49;;;;;;;48.38;14.40;;;;;;;14.96;82.87;101330.06;4975833;28;20122;-41
2024/03/13 01:23:15;;;;;;;50.58;14.35;;;;;;;14.76;83.53;101334.38;4975760;28;20180;-40
2024/03/13 01:25:44;;;;;;;47.70;15.45;;;;;;;15.08;82.28;101332.72;4976097;28;20041;-42
2024/03/13 01:28:09;;;;;;;53.28;15.95;;;;;;;14.80;83.41;101330.88;4975846;28;20122;-45
2024/03/13 01:30:35;;;;;;;49.60;15.55;;;;;;;14.38;85.13;101329.84;4976038;28;20063;-40
2024/03/13 01:33:00;;;;;;;45.17;15.48;;;;;;;14.52;85.25;101336.00;4974971;28;20043;-41
2024/03/13 01:35:26;;;;;;;49.13;16.08;;;;;;;14.41;85.42;101334.22;4975365;28;20038;-41
2024/03/13 01:38:01;;;;;;;46.83;15.23;;;;;;;14.50;85.04;101343.03;4974647;28;20042;-42
2024/03/13 01:55:04;;;;;;;56.30;16.17;;;;;;;14.44;85.92;101350.84;4973528;28;20073;-42
2024/03/13 01:57:32;;;;;;;58.22;15.52;;;;;;;14.67;83.97;101344.84;4974793;28;20482;-40
2024/03/13 02:02:47;;;;;;;58.22;16.67;;;;;;;14.37;85.25;101345.53;4972773;28;20033;-41
2024/03/13 02:05:15;;;;;;;61.70;16.08;;;;;;;14.21;86.00;101344.56;4972854;28;20027;-39
2024/03/13 02:07:40;;;;;;;59.83;15.88;;;;;;;14.34;85.78;101346.38;4972416;28;20093;-42
2024/03/13 02:10:06;;;;;;;59.78;15.43;;;;;;;14.29;85.24;101347.22;4972747;28;20493;-41
2024/03/13 02:12:31;;;;;;;54.60;15.25;;;;;;;14.41;85.88;101350.81;4971967;28;20057;-41
2024/03/13 02:14:57;;;;;;;56.72;16.48;;;;;;;14.30;86.43;101347.25;4972245;28;20109;-41
2024/03/13 02:17:22;;;;;;;57.85;16.48;;;;;;;14.56;85.52;101348.28;4972605;28;20494;-42
2024/03/13 02:19:48;;;;;;;48.33;15.65;;;;;;;14.83;83.78;101346.63;4972076;28;20030;-42
2024/03/13 02:22:14;;;;;;;46.22;16.20;;;;;;;14.31;85.66;101341.13;4972461;28;20085;-40
2024/03/13 02:24:39;;;;;;;58.80;16.35;;;;;;;14.55;85.04;101338.66;4972089;28;20093;-40
2024/03/13 02:27:12;;;;;;;54.05;15.98;;;;;;;14.19;85.85;101354.19;4974168;28;20027;-42
2024/03/13 02:29:38;;;;;;;56.75;16.85;;;;;;;14.26;85.53;101350.72;4973139;28;20043;-42
2024/03/13 02:32:05;;;;;;;59.20;16.70;;;;;;;14.26;85.71;101357.72;4971780;28;20118;-43
2024/03/13 02:34:30;;;;;;;59.45;16.92;;;;;;;14.60;84.97;101347.44;4972358;28;20046;-41
2024/03/13 02:36:56;;;;;;;63.67;16.83;;;;;;;14.45;85.34;101349.13;4971753;28;20042;-41
2024/03/13 02:39:21;;;;;;;62.13;17.38;;;;;;;14.72;83.96;101341.34;4972364;28;20031;-42
2024/03/13 02:41:47;;;;;;;56.17;17.23;;;;;;;14.14;85.90;101342.78;4969523;28;20785;-40
2024/03/13 02:44:12;;;;;;;51.03;16.35;;;;;;;14.17;86.09;101343.66;4971748;28;20061;-41
2024/03/13 02:46:38;;;;;;;52.08;16.17;;;;;;;14.47;85.76;101344.72;4971885;28;20039;-43
2024/03/13 02:49:03;;;;;;;49.65;15.68;;;;;;;14.74;83.63;101341.38;4970721;28;20039;-41
2024/03/13 02:51:29;;;;;;;48.00;14.45;;;;;;;14.43;85.27;101343.84;4971801;28;20030;-42
2024/03/13 02:53:54;;;;;;;43.78;15.15;;;;;;;14.55;84.73;101350.91;4971310;28;20067;-42
2024/03/13 02:56:19;;;;;;;45.45;13.93;;;;;;;14.42;84.97;101347.34;4972182;28;20061;-40
2024/03/13 02:58:46;;;;;;;47.25;13.48;;;;;;;14.63;84.66;101349.19;4971484;28;20515;-43
2024/03/13 03:01:12;;;;;;;38.67;12.50;;;;;;;14.82;83.73;101343.13;4971497;28;20038;-42
2024/03/13 03:03:39;;;;;;;45.22;13.23;;;;;;;14.71;83.38;101351.84;4969984;28;20062;-43
2024/03/13 03:06:06;;;;;;;43.15;13.02;;;;;;;14.61;84.63;101346.56;4971328;28;20696;-43
2024/03/13 03:08:33;;;;;;;50.22;12.82;;;;;;;14.77;83.29;101355.38;4971811;28;20023;-41
2024/03/13 03:10:59;;;;;;;44.53;11.48;;;;;;;14.51;84.91;101351.78;4971293;28;20108;-43
2024/03/13 03:13:24;;;;;;;48.28;10.63;;;;;;;14.38;84.96;101349.94;4970863;28;20039;-41
2024/03/13 03:15:50;;;;;;;39.25;10.15;;;;;;;14.61;84.28;101353.56;4971009;28;20134;-41
2024/03/13 03:18:17;;;;;;;35.13;9.50;;;;;;;14.63;85.10;101353.56;4971630;28;20481;-42
2024/03/13 03:20:45;;;;;;;34.63;9.43;;;;;;;14.95;83.22;101354.56;4971107;28;20038;-43
2024/03/13 03:23:11;;;;;;;39.80;8.85;;;;;;;14.78;82.98;101358.88;4971581;28;20129;-39
2024/03/13 03:25:37;;;;;;;40.08;8.13;;;;;;;15.05;82.75;101358.09;4972877;28;20088;-55
2024/03/13 03:28:03;;;;;;;36.05;7.97;;;;;;;14.51;83.95;101364.88;4971972;28;20535;-40
2024/03/13 03:30:30;;;;;;;34.95;7.85;;;;;;;14.70;83.63;101353.59;4971604;28;20034;-43
2024/03/13 03:32:56;;;;;;;39.40;7.95;;;;;;;14.71;84.19;101357.09;4968950;28;20561;-43
2024/03/13 03:35:21;;;;;;;36.75;7.85;;;;;;;14.77;84.37;101359.72;4970827;28;20031;-41
2024/03/13 03:37:46;;;;;;;39.80;7.80;;;;;;;14.78;84.07;101356.25;4970848;28;20214;-42
2024/03/13 03:40:16;;;;;;;30.83;7.68;;;;;;;14.44;84.12;101360.47;4971145;28;20042;-43
2024/03/13 03:42:41;;;;;;;35.53;7.40;;;;;;;14.65;84.66;101357.06;4969908;28;20129;-41
2024/03/13 03:45:08;;;;;;;32.45;7.00;;;;;;;14.86;83.91;101367.66;4971149;28;20616;-41
2024/03/13 03:47:34;;;;;;;25.42;6.88;;;;;;;14.79;83.46;101365.88;4972863;28;20039;-41
2024/03/13 03:49:59;;;;;;;40.30;7.25;;;;;;;14.74;83.18;101367.63;4973440;28;20084;-41
2024/03/13 03:52:24;;;;;;;34.35;7.13;;;;;;;14.84;83.46;101367.66;4972352;28;20038;-42
2024/03/13 03:54:49;;;;;;;33.40;7.40;;;;;;;14.88;83.36;101374.66;4969953;28;20095;-42
2024/03/13 03:57:15;;;;;;;34.22;7.55;;;;;;;14.51;84.36;101372.75;4970883;28;20094;-44
2024/03/13 03:59:40;;;;;;;31.42;7.55;;;;;;;14.87;83.95;101370.31;4970391;28;20438;-41
2024/03/13 04:02:05;;;;;;;30.00;7.20;;;;;;;14.85;83.32;101365.91;4968833;28;20118;-41
2024/03/13 04:04:32;;;;;;;30.77;7.10;;;;;;;14.89;83.24;101371.16;4970950;28;20070;-41
2024/03/13 04:06:57;;;;;;;34.15;7.95;;;;;;;14.63;83.92;101371.94;4970586;28;20117;-41
2024/03/13 04:09:24;;;;;;;29.92;7.55;;;;;;;14.90;83.58;101362.41;4970921;28;20125;-41
2024/03/13 04:11:52;;;;;;;34.80;7.85;;;;;;;14.90;82.71;101365.03;4971028;28;20054;-41
2024/03/13 04:14:18;;;;;;;34.03;7.57;;;;;;;14.69;83.52;101366.72;4971861;28;20050;-43
2024/03/13 04:16:44;;;;;;;43.85;7.88;;;;;;;14.60;84.08;101371.03;4970990;28;20417;-44
2024/03/13 04:19:10;;;;;;;34.25;7.45;;;;;;;14.75;82.69;101372.88;4971537;28;20110;-41
2024/03/13 04:21:37;;;;;;;40.22;7.25;;;;;;;14.88;82.35;101368.56;4969453;28;20043;-44
2024/03/13 04:24:03;;;;;;;40.08;7.32;;;;;;;14.53;82.97;101373.63;4966775;28;20467;-41
2024/03/13 04:26:29;;;;;;;34.90;7.43;;;;;;;14.65;83.76;101368.44;4966276;28;20121;-42
2024/03/13 04:28:57;;;;;;;37.45;7.30;;;;;;;14.92;82.31;101362.44;4970138;28;20101;-43
2024/03/13 04:31:23;;;;;;;38.47;7.03;;;;;;;14.82;82.89;101372.00;4971139;28;20030;-41
2024/03/13 04:33:49;;;;;;;36.78;7.00;;;;;;;14.60;83.81;101368.41;4971715;28;20461;-41
2024/03/13 04:36:14;;;;;;;32.38;6.97;;;;;;;14.90;82.42;101372.03;4972105;28;20031;-41
2024/03/13 04:38:39;;;;;;;37.42;6.75;;;;;;;14.84;82.83;101377.25;4970228;28;20501;-43
2024/03/13 04:41:09;;;;;;;34.67;6.80;;;;;;;14.79;82.54;101374.63;4970301;28;20039;-43
2024/03/13 04:43:34;;;;;;;36.55;6.53;;;;;;;14.93;82.71;101379.94;4969905;28;20038;-46
2024/03/13 04:45:59;;;;;;;31.73;6.47;;;;;;;15.05;82.24;101381.72;4970021;28;20146;-42
2024/03/13 04:48:25;;;;;;;31.77;6.22;;;;;;;14.72;82.85;101374.59;4970485;28;20082;-42
2024/03/13 04:50:51;;;;;;;29.13;5.80;;;;;;;14.94;82.25;101385.19;4970466;28;20050;-41
2024/03/13 04:53:19;;;;;;;35.80;6.20;;;;;;;14.70;82.88;101378.97;4969959;28;20035;-42
2024/03/13 04:55:45;;;;;;;32.45;6.72;;;;;;;14.74;82.88;101378.09;4971144;28;20042;-41
2024/03/13 04:58:10;;;;;;;36.38;6.55;;;;;;;14.82;82.88;101379.03;4970388;28;20039;-40
2024/03/13 05:00:35;;;;;;;33.92;6.07;;;;;;;14.91;82.48;101379.94;4970487;28;20121;-40
2024/03/13 05:03:01;;;;;;;31.10;5.85;;;;;;;15.08;82.02;101381.72;4969354;28;20097;-42
2024/03/13 05:05:26;;;;;;;29.58;5.57;;;;;;;14.75;83.38;101378.13;4973963;28;20644;-42
2024/03/13 05:07:52;;;;;;;38.97;6.03;;;;;;;14.87;82.49;101380.81;4975643;28;20492;-40
2024/03/13 05:10:17;;;;;;;40.40;5.82;;;;;;;14.85;82.02;101381.66;4976060;28;20256;-41
2024/03/13 05:12:43;;;;;;;34.28;5.30;;;;;;;14.75;82.34;101380.75;4973642;28;20551;-43
2024/03/13 05:15:09;;;;;;;34.38;5.60;;;;;;;14.65;83.38;101381.56;4973700;28;20031;-42
2024/03/13 05:17:34;;;;;;;31.95;5.50;;;;;;;14.68;82.73;101383.34;4973708;28;20121;-41
2024/03/13 05:20:01;;;;;;;32.67;5.50;;;;;;;15.08;81.75;101387.84;4973253;28;20035;-42
2024/03/13 05:22:29;;;;;;;33.40;5.80;;;;;;;15.15;81.31;101391.38;4973378;28;20039;-43
2024/03/13 05:24:58;;;;;;;35.72;5.70;;;;;;;15.14;81.44;101393.13;4973276;28;20063;-44
2024/03/13 05:27:24;;;;;;;28.77;5.55;;;;;;;14.83;82.84;101394.75;4973821;28;20034;-41
2024/03/13 05:29:50;;;;;;;28.77;5.53;;;;;;;14.72;82.64;101395.59;4970688;28;20099;-41
2024/03/13 05:32:16;;;;;;;22.80;5.28;;;;;;;14.95;82.08;101397.44;4973151;28;20380;-43
2024/03/13 05:34:41;;;;;;;24.38;4.55;;;;;;;15.20;81.30;101390.53;4973020;28;20119;-41
2024/03/13 05:37:07;;;;;;;27.13;5.32;;;;;;;14.95;82.25;101389.56;4973560;28;20374;-44
2024/03/13 05:39:34;;;;;;;26.52;5.45;;;;;;;14.96;82.50;101390.44;4975284;28;20039;-41
2024/03/13 05:41:59;;;;;;;24.67;4.82;;;;;;;15.22;80.95;101393.16;4975133;28;20070;-41
2024/03/13 05:44:25;;;;;;;23.02;5.05;;;;;;;15.16;80.56;101401.91;4973797;28;20034;-43
2024/03/13 05:46:51;;;;;;;27.10;5.10;;;;;;;15.03;81.33;101400.97;4972816;28;20039;-41
2024/03/13 05:49:17;;;;;;;24.27;5.55;;;;;;;14.95;81.24;101407.06;4973366;28;20097;-41
2024/03/13 05:51:45;;;;;;;32.97;5.47;;;;;;;15.29;80.63;101402.81;4972199;28;20039;-42
2024/03/13 05:54:11;;;;;;;26.23;5.63;;;;;;;15.39;80.42;101405.47;4972821;28;20501;-41
2024/03/13 05:56:37;;;;;;;31.25;6.07;;;;;;;15.10;81.04;101403.63;4973287;28;20043;-42
2024/03/13 05:59:03;;;;;;;23.73;5.35;;;;;;;15.39;80.17;101409.81;4973074;28;20035;-40
2024/03/13 06:01:28;;;;;;;30.10;6.30;;;;;;;15.28;80.07;101411.56;4972621;28;20569;-42
2024/03/13 06:03:54;;;;;;;32.72;6.20;;;;;;;15.15;80.95;101410.66;4972276;28;20037;-43
2024/03/13 06:06:22;;;;;;;27.92;7.30;;;;;;;15.22;80.56;101419.41;4972825;28;20030;-41
2024/03/13 06:08:47;;;;;;;29.35;6.35;;;;;;;15.32;79.97;101418.56;4972596;28;20039;-41
2024/03/13 06:11:14;;;;;;;26.05;6.72;;;;;;;15.46;79.60;101426.50;4972800;28;20039;-41
2024/03/13 06:13:40;;;;;;;29.70;7.07;;;;;;;15.29;80.33;101432.59;5001687;23;20448;-45
2024/03/13 06:16:06;;;;;;;22.38;6.55;;;;;;;15.18;80.26;101429.06;4991810;28;20094;-46
2024/03/13 06:18:32;;;;;;;30.80;7.00;;;;;;;15.10;80.46;101430.75;4992526;28;20038;-46
2024/03/13 06:20:57;;;;;;;33.33;6.80;;;;;;;15.28;80.00;101436.09;4991908;28;20084;-44
2024/03/13 06:23:26;;;;;;;30.67;6.88;;;;;;;15.44;79.45;101437.88;4991617;28;20057;-46
2024/03/13 06:25:52;;;;;;;27.35;6.50;;;;;;;15.44;79.30;101429.97;4991590;28;20101;-48
2024/03/13 06:31:04;;;;;;;26.23;7.43;;;;;;;15.36;79.82;101422.97;4992083;28;20056;-45
2024/03/13 06:33:31;;;;;;;37.53;8.10;;;;;;;15.05;80.42;101421.13;4990855;28;20054;-44
2024/03/13 06:35:56;;;;;;;30.65;7.32;;;;;;;15.25;79.95;101419.41;4991297;28;20104;-45
2024/03/13 06:38:22;;;;;;;29.38;7.53;;;;;;;14.96;80.38;101424.56;4992136;28;20034;-44
2024/03/13 06:40:47;;;;;;;25.30;7.22;;;;;;;15.26;80.42;101426.44;4991668;28;20038;-47
2024/03/13 06:43:14;;;;;;;35.58;8.63;;;;;;;15.20;79.90;101418.53;4991486;28;20030;-44
2024/03/13 06:45:42;;;;;;;30.35;7.70;;;;;;;15.09;80.19;101420.25;4991274;28;20038;-46
2024/03/13 06:48:08;;;;;;;32.08;7.63;;;;;;;14.69;82.70;101430.59;4991913;28;20049;-47
2024/03/13 06:50:33;;;;;;;29.10;8.38;;;;;;;15.07;80.77;101427.22;4991714;28;20077;-46
2024/03/13 06:52:58;;;;;;;33.92;7.85;;;;;;;15.36;79.79;101426.47;4990670;28;20034;-44
2024/03/13 06:55:25;;;;;;;42.05;8.27;;;;;;;15.50;79.58;101420.34;4991859;28;20031;-45
2024/03/13 06:57:50;;;;;;;31.65;7.75;;;;;;;15.46;79.53;101422.13;4991343;28;20038;-46
2024/03/13 07:00:16;;;;;;;33.22;8.18;;;;;;;15.33;79.65;101433.47;4991862;28;20093;-47
2024/03/13 07:02:42;;;;;;;26.65;7.50;;;;;;;15.41;79.80;101429.13;4990781;28;20125;-45
2024/03/13 07:05:07;;;;;;;29.92;7.68;;;;;;;15.43;79.56;101441.34;4991873;28;20117;-46
2024/03/13 07:07:33;;;;;;;29.67;6.70;;;;;;;15.38;79.89;101440.47;4992063;28;20448;-46
2024/03/13 07:09:58;;;;;;;27.20;6.88;;;;;;;15.39;79.91;101438.72;4992844;28;20069;-44
2024/03/13 07:12:24;;;;;;;34.17;7.53;;;;;;;14.84;81.15;101435.91;4992195;28;20035;-43
2024/03/13 07:14:50;;;;;;;28.58;6.88;;;;;;;15.24;80.33;101438.69;4991345;28;20046;-47
2024/03/13 07:17:16;;;;;;;30.83;7.32;;;;;;;15.52;79.79;101443.19;4991362;28;20038;-45
2024/03/13 07:19:41;;;;;;;30.00;7.07;;;;;;;15.25;79.88;101443.06;4992607;28;20038;-47
2024/03/13 07:22:06;;;;;;;29.83;7.40;;;;;;;15.42;79.67;101444.88;4992706;28;20034;-46
2024/03/13 07:24:32;;;;;;;32.58;7.30;;;;;;;15.22;80.89;101443.06;4994143;28;20069;-44
2024/03/13 07:26:57;;;;;;;31.98;7.70;;;;;;;15.33;80.50;101444.84;4991251;28;20038;-44
2024/03/13 07:29:22;;;;;;;28.30;7.20;;;;;;;15.28;80.16;101441.34;4992394;28;20049;-44
2024/03/13 07:31:47;;;;;;;39.25;7.60;;;;;;;14.94;81.03;101444.72;4992582;28;20034;-45
2024/03/13 07:34:13;;;;;;;36.97;7.50;;;;;;;15.35;80.89;101442.22;4991736;28;20030;-45
2024/03/13 07:36:38;;;;;;;26.55;7.20;;;;;;;15.54;80.15;101445.81;4991258;28;20597;-46
2024/03/13 07:39:10;;;;;;;31.05;7.03;;;;;;;15.54;80.11;101451.97;4990858;28;20065;-45
2024/03/13 07:41:35;;;;;;;38.05;7.57;;;;;;;15.51;80.08;101456.28;4990623;28;20049;-45
2024/03/13 07:44:00;;;;;;;32.20;7.05;;;;;;;15.02;81.25;101458.72;4990157;28;20035;-44
2024/03/13 07:46:25;;;;;;;30.08;6.97;;;;;;;15.52;80.08;101461.56;4990309;28;20543;-44
2024/03/13 07:48:51;;;;;;;34.35;7.65;;;;;;;15.32;80.62;101468.47;4989017;28;20046;-45
2024/03/13 07:51:16;;;;;;;35.05;7.18;;;;;;;15.25;79.96;101470.22;4990682;28;20042;-44
2024/03/13 07:53:41;;;;;;;34.20;6.80;;;;;;;14.98;80.93;101470.97;4991683;28;20026;-44
2024/03/13 07:56:08;;;;;;;29.33;7.60;;;;;;;15.26;80.21;101461.47;4992748;28;20497;-48
2024/03/13 07:58:34;;;;;;;24.42;6.53;;;;;;;15.51;80.11;101472.03;4992828;28;20042;-44
2024/03/13 08:01:01;;;;;;;31.83;6.55;;;;;;;15.43;79.82;101474.63;4991960;28;20031;-45
2024/03/13 08:03:27;;;;;;;25.02;6.70;;;;;;;15.81;79.19;101478.28;4991918;28;20078;-46
2024/03/13 08:05:55;;;;;;;32.90;7.00;;;;;;;15.53;79.34;101478.22;4990942;28;20133;-46
2024/03/13 08:08:21;;;;;;;26.92;6.70;;;;;;;15.46;79.18;101473.78;4990980;28;20034;-46
2024/03/13 08:10:46;;;;;;;22.65;6.90;;;;;;;15.60;79.29;101480.00;4990401;28;20042;-45
2024/03/13 08:13:11;;;;;;;24.13;6.57;;;;;;;15.82;78.97;101481.78;4990597;28;20481;-46
2024/03/13 08:15:37;;;;;;;23.40;6.72;;;;;;;15.88;78.47;101480.91;4990580;28;20121;-47
2024/03/13 08:18:02;;;;;;;27.85;6.38;;;;;;;15.81;78.06;101480.91;4992664;28;20085;-45
2024/03/13 08:20:28;;;;;;;22.95;6.35;;;;;;;16.16;77.95;101480.09;4992154;28;20033;-46
2024/03/13 08:22:53;;;;;;;26.08;6.30;;;;;;;15.86;78.74;101483.53;4990375;28;20035;-44
2024/03/13 08:25:20;;;;;;;23.42;6.40;;;;;;;15.71;79.04;101481.78;4990896;28;20034;-46
2024/03/13 08:27:56;;;;;;;29.20;6.47;;;;;;;15.85;78.50;101483.56;4990528;28;20124;-44
2024/03/13 08:30:21;;;;;;;26.13;6.28;;;;;;;16.05;77.52;101482.69;4990379;28;20034;-43
2024/03/13 08:32:49;;;;;;;18.27;5.60;;;;;;;15.69;78.57;101488.78;4989374;28;20045;-43
2024/03/13 08:35:15;;;;;;;21.70;6.10;;;;;;;15.64;78.90;101490.50;4991186;28;20512;-44
2024/03/13 08:37:41;;;;;;;21.13;5.85;;;;;;;15.68;78.46;101494.00;4991059;28;20035;-47
2024/03/13 08:40:11;;;;;;;21.60;5.90;;;;;;;15.86;78.09;101501.94;4992160;28;20034;-46
2024/03/13 08:42:37;;;;;;;26.27;5.93;;;;;;;15.59;78.86;101512.41;4993755;28;20120;-46
2024/03/13 08:45:03;;;;;;;24.33;5.53;;;;;;;15.68;78.37;101508.03;4993958;28;20485;-46
2024/03/13 08:47:29;;;;;;;24.05;5.15;;;;;;;15.48;79.20;101504.47;4994222;28;20808;-46
2024/03/13 08:49:55;;;;;;;17.63;5.22;;;;;;;16.02;77.86;101506.38;4993585;28;20121;-46
2024/03/13 08:52:21;;;;;;;17.40;4.95;;;;;;;16.21;77.34;101505.50;4993617;28;20033;-44
2024/03/13 08:54:48;;;;;;;17.20;5.13;;;;;;;16.18;76.49;101505.50;4993376;28;20034;-46
2024/03/13 08:57:13;;;;;;;17.40;5.00;;;;;;;16.04;77.14;101509.84;4993967;28;20469;-44
2024/03/13 08:59:40;;;;;;;21.60;5.57;;;;;;;15.65;78.75;101509.78;4993444;28;20050;-44
2024/03/13 09:02:06;;;;;;;18.08;5.15;;;;;;;15.62;78.51;101515.03;4993515;28;20101;-47
2024/03/13 09:04:33;;;;;;;24.42;5.80;;;;;;;15.30;79.84;101518.41;4994075;28;20540;-46
2024/03/13 09:07:00;;;;;;;19.88;5.40;;;;;;;15.50;79.57;101517.59;4993648;28;20093;-46
2024/03/13 09:09:26;;;;;;;20.77;6.03;;;;;;;15.11;80.99;101520.94;4993951;28;20501;-45
2024/03/13 09:11:52;;;;;;;26.88;6.38;;;;;;;15.30;79.69;101530.66;4992732;28;20042;-44
2024/03/13 09:14:17;;;;;;;18.42;5.25;;;;;;;16.08;77.65;101519.53;4992993;28;20076;-45
2024/03/13 09:16:43;;;;;;;17.33;5.55;;;;;;;16.37;76.77;101530.06;4991738;28;20460;-44
2024/03/13 09:19:09;;;;;;;26.13;5.82;;;;;;;15.98;77.67;101533.50;4993528;28;20043;-46
2024/03/13 09:21:34;;;;;;;17.48;4.90;;;;;;;16.25;76.47;101527.41;4993516;28;20036;-47
2024/03/13 09:24:00;;;;;;;22.95;5.63;;;;;;;16.53;76.21;101529.16;4993099;28;20030;-45
2024/03/13 09:26:25;;;;;;;19.27;5.30;;;;;;;16.46;75.89;101530.06;4990962;28;20027;-46
2024/03/13 09:28:51;;;;;;;17.95;5.63;;;;;;;16.18;76.57;101534.44;4993144;28;20046;-44
2024/03/13 09:31:16;;;;;;;17.95;5.30;;;;;;;16.29;76.28;101530.91;4992735;28;20043;-45
2024/03/13 09:33:41;;;;;;;20.30;5.00;;;;;;;16.27;76.40;101538.84;4992020;28;20030;-46
2024/03/13 09:36:12;;;;;;;20.48;5.88;;;;;;;15.57;78.51;101537.78;4993265;28;20073;-50
2024/03/13 09:38:37;;;;;;;17.02;5.68;;;;;;;16.17;77.93;101531.78;4993038;28;20053;-45
2024/03/13 09:41:06;;;;;;;19.63;5.43;;;;;;;16.47;76.34;101536.19;4993237;28;20030;-47
2024/03/13 09:43:32;;;;;;;16.45;5.00;;;;;;;16.79;75.91;101533.56;4992741;28;20421;-45
2024/03/13 09:45:58;;;;;;;19.02;5.63;;;;;;;16.46;75.28;101531.81;4992554;28;20121;-46
2024/03/13 09:48:25;;;;;;;20.13;5.10;;;;;;;16.59;75.57;101529.19;4993095;28;20038;-48
2024/03/13 09:50:50;;;;;;;16.20;5.60;;;;;;;16.52;76.02;101526.56;4991654;28;20089;-48
2024/03/13 09:53:17;;;;;;;18.70;5.75;;;;;;;16.16;76.33;101527.44;4991834;28;20038;-45
2024/03/13 09:55:44;;;;;;;17.13;5.70;;;;;;;16.10;75.97;101538.78;4992333;28;20046;-46
2024/03/13 09:58:13;;;;;;;15.63;5.20;;;;;;;16.00;76.80;101542.28;4991432;28;20559;-47
2024/03/13 10:00:39;;;;;;;15.73;4.82;;;;;;;15.76;77.20;101544.88;4993004;28;20437;-46
2024/03/13 10:03:21;;;;;;;20.60;5.25;;;;;;;16.09;77.05;101541.44;4992389;28;20041;-48
2024/03/13 10:05:49;;;;;;;22.30;4.53;;;;;;;15.58;77.18;101547.44;4992274;28;20038;-45
2024/03/13 10:08:16;;;;;;;17.50;4.30;;;;;;;16.35;75.95;101547.59;4992561;28;20035;-45
2024/03/13 10:10:44;;;;;;;18.38;4.60;;;;;;;16.31;75.76;101545.84;4991969;28;20516;-45
2024/03/13 10:13:11;;;;;;;13.02;4.15;;;;;;;16.81;74.47;101545.84;4991680;28;20039;-46
2024/03/13 10:15:37;;;;;;;21.98;4.35;;;;;;;16.21;75.23;101541.47;4992303;28;20440;-46
2024/03/13 10:18:16;;;;;;;18.85;4.53;;;;;;;16.73;74.73;101544.97;4992183;28;20072;-45
2024/03/13 10:20:54;;;;;;;16.65;4.10;;;;;;;16.41;74.68;101542.31;4992026;28;20046;-44
2024/03/13 10:23:21;;;;;;;16.75;3.90;;;;;;;16.46;74.26;101534.47;4992787;28;20033;-48
2024/03/13 10:25:56;;;;;;;18.42;2.80;;;;;;;15.89;74.48;101549.28;4993045;28;20034;-47
2024/03/13 10:28:23;;;;;;;11.50;2.65;;;;;;;15.97;74.80;101546.69;4993190;28;20122;-48
2024/03/13 10:30:52;;;;;;;11.00;2.10;;;;;;;15.62;74.77;101543.94;4993253;28;20038;-45
2024/03/13 10:33:18;;;;;;;12.98;2.47;;;;;;;16.08;74.01;101551.09;4992833;28;20045;-48
2024/03/13 10:35:44;;;;;;;10.02;2.30;;;;;;;15.92;74.17;101553.69;4991820;28;20034;-45
2024/03/13 10:38:13;;;;;;;11.43;2.13;;;;;;;16.05;73.21;101552.81;4992651;28;20042;-46
2024/03/13 10:40:41;;;;;;;11.20;2.25;;;;;;;15.87;72.67;101552.78;4992282;28;20096;-48
2024/03/13 10:43:11;;;;;;;10.00;2.20;;;;;;;15.75;73.87;101557.13;4991665;28;20487;-46
2024/03/13 10:45:37;;;;;;;7.10;2.13;;;;;;;16.06;73.08;101554.56;4992199;28;20034;-46
2024/03/13 10:48:03;;;;;;;9.68;2.50;;;;;;;16.49;71.38;101550.22;4992304;28;20430;-46
2024/03/13 10:50:29;;;;;;;11.60;2.03;;;;;;;16.28;71.69;101552.88;4992571;28;20038;-47
2024/03/13 10:52:55;;;;;;;12.50;2.10;;;;;;;15.77;72.15;101542.25;4991311;28;20041;-46
2024/03/13 10:55:20;;;;;;;9.23;2.53;;;;;;;15.67;73.23;101551.00;4992145;28;20026;-48
2024/03/13 10:57:50;;;;;;;7.30;1.80;;;;;;;16.08;71.95;101550.22;4991369;28;20401;-47
2024/03/13 11:00:21;;;;;;;10.38;2.28;;;;;;;15.86;72.59;101553.69;4991705;28;20080;-46
2024/03/13 11:02:46;;;;;;;9.32;1.80;;;;;;;16.08;71.46;101556.34;4990429;28;20034;-48
2024/03/13 11:05:14;;;;;;;8.70;1.85;;;;;;;15.57;72.88;101561.44;4991873;28;20678;-44
2024/03/13 11:07:39;;;;;;;8.43;1.98;;;;;;;15.64;72.31;101563.22;4991483;28;20139;-46
2024/03/13 11:10:13;;;;;;;8.18;2.03;;;;;;;15.57;73.22;101564.97;4991898;28;20146;-47
2024/03/13 11:12:43;;;;;;;10.32;2.05;;;;;;;15.42;74.05;101549.13;4991452;28;20046;-48
2024/03/13 11:15:14;;;;;;;13.20;2.38;;;;;;;15.29;74.69;101557.81;4992187;28;20041;-47
2024/03/13 11:17:46;;;;;;;9.93;2.75;;;;;;;15.60;73.63;101564.09;4992075;28;20042;-44
2024/03/13 11:20:20;;;;;;;10.23;2.25;;;;;;;15.68;73.84;101563.25;4992264;28;20034;-46
2024/03/13 11:22:53;;;;;;;12.63;2.28;;;;;;;15.42;74.41;101562.25;4990987;28;20061;-49
2024/03/13 11:25:20;;;;;;;10.25;2.13;;;;;;;15.95;72.07;101566.84;4992370;28;20026;-48
2024/03/13 11:27:54;;;;;;;8.30;2.10;;;;;;;15.70;73.47;101564.13;4992394;28;20038;-47
2024/03/13 11:30:20;;;;;;;8.40;1.90;;;;;;;15.70;72.90;101563.25;4992460;28;20049;-45